createdAt,value
2017-08-19T00:00:23.692Z,99.99
2017-08-19T00:01:23.663Z,99.99
2017-08-19T00:02:23.701Z,99.99
2017-08-19T00:03:23.641Z,99.99
2017-08-19T00:04:23.613Z,99.99
2017-08-19T00:05:23.602Z,99.99
2017-08-19T00:06:23.586Z,99.99
2017-08-19T00:07:23.294Z,99.99
2017-08-19T00:08:23.544Z,99.99
2017-08-19T00:09:23.521Z,99.99
2017-08-19T00:10:23.511Z,99.99
2017-08-19T00:11:23.492Z,99.99
2017-08-19T00:12:23.530Z,99.99
2017-08-19T00:13:23.456Z,99.99
2017-08-19T00:14:23.440Z,99.99
2017-08-19T00:15:23.428Z,99.99
2017-08-19T00:16:23.402Z,99.99
2017-08-19T00:17:23.402Z,99.99
2017-08-19T00:18:23.059Z,99.99
2017-08-19T00:19:23.351Z,99.99
2017-08-19T00:20:23.022Z,99.99
2017-08-19T00:21:23.305Z,99.99
2017-08-19T00:22:23.040Z,99.99
2017-08-19T00:23:23.280Z,99.99
2017-08-19T00:24:23.260Z,99.99
2017-08-19T00:25:23.241Z,99.99
2017-08-19T00:26:22.918Z,99.99
2017-08-19T00:27:23.221Z,99.99
2017-08-19T00:28:22.880Z,99.99
2017-08-19T00:29:22.860Z,99.99
2017-08-19T00:30:22.856Z,99.99
2017-08-19T00:31:23.191Z,99.99
2017-08-19T00:32:22.820Z,99.99
2017-08-19T00:33:23.161Z,99.99
2017-08-19T00:34:23.079Z,99.99
2017-08-19T00:35:23.078Z,99.99
2017-08-19T00:36:23.047Z,99.99
2017-08-19T00:37:23.050Z,99.99
2017-08-19T00:38:23.023Z,99.99
2017-08-19T00:39:23.084Z,99.99
2017-08-19T00:40:22.980Z,99.99
2017-08-19T00:41:22.976Z,99.99
2017-08-19T00:42:22.940Z,99.99
2017-08-19T00:43:22.614Z,99.99
2017-08-19T00:44:22.600Z,99.99
2017-08-19T00:45:22.900Z,99.99
2017-08-19T00:46:22.870Z,99.99
2017-08-19T00:47:22.850Z,99.99
2017-08-19T00:48:22.840Z,99.99
2017-08-19T00:49:22.830Z,99.99
2017-08-19T00:50:22.491Z,99.99
2017-08-19T00:51:22.830Z,99.99
2017-08-19T00:52:22.771Z,99.99
2017-08-19T00:53:22.750Z,99.99
2017-08-19T00:54:22.729Z,99.99
2017-08-19T00:55:22.750Z,99.99
2017-08-19T00:56:22.384Z,99.99
2017-08-19T00:57:22.670Z,99.99
2017-08-19T00:58:22.353Z,99.99
2017-08-19T00:59:22.639Z,99.99
2017-08-19T01:00:22.314Z,99.99
2017-08-19T01:01:22.291Z,99.99
2017-08-19T01:02:22.582Z,99.99
2017-08-19T01:03:22.258Z,99.99
2017-08-19T01:04:22.242Z,99.99
2017-08-19T01:05:22.542Z,99.99
2017-08-19T01:06:22.509Z,99.99
2017-08-19T01:07:22.510Z,99.99
2017-08-19T01:08:22.170Z,99.99
2017-08-19T01:09:22.173Z,99.99
2017-08-19T01:10:22.443Z,99.99
2017-08-19T01:11:22.120Z,99.99
2017-08-19T01:12:22.410Z,99.99
2017-08-19T01:13:22.090Z,99.99
2017-08-19T01:14:22.371Z,99.99
2017-08-19T01:15:22.361Z,99.99
2017-08-19T01:16:22.340Z,99.99
2017-08-19T01:17:22.314Z,99.99
2017-08-19T01:18:22.301Z,99.99
2017-08-19T01:19:22.282Z,99.99
2017-08-19T01:20:22.261Z,99.99
2017-08-19T01:21:22.251Z,99.99
2017-08-19T01:22:21.919Z,99.99
2017-08-19T01:23:22.209Z,99.99
2017-08-19T01:24:22.203Z,99.99
2017-08-19T01:25:22.179Z,99.99
2017-08-19T01:26:21.851Z,99.99
2017-08-19T01:27:21.832Z,99.99
2017-08-19T01:28:22.120Z,99.99
2017-08-19T01:29:22.102Z,99.99
2017-08-19T01:30:21.788Z,99.99
2017-08-19T01:31:21.768Z,99.99
2017-08-19T01:32:21.743Z,99.99
2017-08-19T01:33:21.724Z,99.99
2017-08-19T01:34:22.020Z,99.99
2017-08-19T01:35:21.993Z,99.99
2017-08-19T01:36:21.675Z,99.99
2017-08-19T01:37:21.961Z,99.99
2017-08-19T01:38:21.943Z,99.99
2017-08-19T01:39:21.932Z,99.99
2017-08-19T01:40:21.625Z,99.99
2017-08-19T01:41:21.583Z,99.99
2017-08-19T01:42:21.871Z,99.99
2017-08-19T01:43:21.860Z,99.99
2017-08-19T01:44:21.841Z,99.99
2017-08-19T01:45:21.813Z,99.99
2017-08-19T01:46:21.801Z,99.99
2017-08-19T01:47:21.791Z,99.99
2017-08-19T01:48:21.791Z,99.99
2017-08-19T01:49:21.750Z,99.99
2017-08-19T01:50:21.732Z,99.99
2017-08-19T01:51:21.721Z,99.99
2017-08-19T01:52:21.691Z,99.99
2017-08-19T01:53:21.671Z,99.99
2017-08-19T01:54:21.670Z,99.99
2017-08-19T01:55:21.642Z,99.99
2017-08-19T01:56:21.637Z,99.99
2017-08-19T01:57:21.602Z,99.99
2017-08-19T01:58:21.603Z,99.99
2017-08-19T01:59:21.575Z,99.99
2017-08-19T02:00:21.582Z,99.99
2017-08-19T02:01:21.546Z,99.99
2017-08-19T02:02:21.510Z,99.99
2017-08-19T02:03:21.492Z,99.99
2017-08-19T02:04:21.479Z,99.99
2017-08-19T02:05:21.466Z,99.99
2017-08-19T02:06:21.449Z,99.99
2017-08-19T02:07:21.686Z,99.99
2017-08-19T02:08:21.413Z,99.99
2017-08-19T02:09:21.393Z,99.99
2017-08-19T02:10:21.069Z,99.99
2017-08-19T02:11:21.380Z,99.99
2017-08-19T02:12:21.352Z,99.99
2017-08-19T02:13:21.321Z,99.99
2017-08-19T02:14:20.992Z,99.99
2017-08-19T02:15:21.280Z,99.99
2017-08-19T02:16:20.966Z,99.99
2017-08-19T02:17:21.001Z,99.99
2017-08-19T02:18:21.220Z,99.99
2017-08-19T02:19:21.201Z,99.99
2017-08-19T02:20:21.193Z,99.99
2017-08-19T02:21:21.172Z,99.99
2017-08-19T02:22:21.159Z,99.99
2017-08-19T02:23:21.131Z,99.99
2017-08-19T02:24:20.813Z,99.99
2017-08-19T02:25:21.101Z,99.99
2017-08-19T02:26:20.789Z,99.99
2017-08-19T02:27:20.762Z,99.99
2017-08-19T02:28:20.743Z,99.99
2017-08-19T02:29:21.241Z,99.99
2017-08-19T02:30:20.700Z,99.99
2017-08-19T02:31:21.021Z,99.99
2017-08-19T02:32:20.982Z,99.99
2017-08-19T02:33:20.960Z,99.99
2017-08-19T02:34:20.946Z,99.99
2017-08-19T02:35:20.625Z,99.99
2017-08-19T02:36:20.922Z,99.99
2017-08-19T02:37:20.880Z,99.99
2017-08-19T02:38:20.566Z,99.99
2017-08-19T02:39:20.549Z,99.99
2017-08-19T02:40:20.830Z,99.99
2017-08-19T02:41:20.581Z,99.99
2017-08-19T02:42:20.792Z,99.99
2017-08-19T02:43:20.785Z,99.99
2017-08-19T02:44:20.453Z,99.99
2017-08-19T02:45:20.440Z,99.99
2017-08-19T02:46:20.720Z,99.99
2017-08-19T02:47:20.707Z,99.99
2017-08-19T02:48:20.688Z,99.99
2017-08-19T02:49:20.679Z,99.99
2017-08-19T02:50:20.651Z,99.99
2017-08-19T02:51:20.343Z,99.99
2017-08-19T02:52:20.611Z,99.99
2017-08-19T02:53:20.602Z,99.99
2017-08-19T02:54:20.578Z,99.99
2017-08-19T02:55:20.573Z,99.99
2017-08-19T02:56:20.542Z,99.99
2017-08-19T02:57:20.234Z,99.99
2017-08-19T02:58:20.511Z,99.99
2017-08-19T02:59:20.488Z,99.99
2017-08-19T03:00:20.469Z,99.99
2017-08-19T03:01:20.460Z,99.99
2017-08-19T03:02:20.131Z,99.99
2017-08-19T03:03:20.435Z,99.99
2017-08-19T03:04:20.399Z,99.99
2017-08-19T03:05:20.383Z,99.99
2017-08-19T03:06:20.384Z,99.99
2017-08-19T03:07:20.343Z,99.99
2017-08-19T03:08:20.330Z,99.99
2017-08-19T03:09:20.310Z,99.99
2017-08-19T03:10:19.984Z,99.99
2017-08-19T03:11:20.283Z,99.99
2017-08-19T03:12:20.251Z,99.99
2017-08-19T03:13:20.242Z,99.99
2017-08-19T03:14:20.221Z,99.99
2017-08-19T03:15:19.891Z,99.99
2017-08-19T03:16:20.192Z,99.99
2017-08-19T03:17:19.861Z,99.99
2017-08-19T03:18:20.151Z,99.99
2017-08-19T03:19:20.130Z,99.99
2017-08-19T03:20:20.121Z,99.99
2017-08-19T03:21:20.091Z,99.99
2017-08-19T03:22:20.093Z,99.99
2017-08-19T03:23:20.071Z,99.99
2017-08-19T03:24:20.050Z,99.99
2017-08-19T03:25:20.018Z,99.99
2017-08-19T03:26:19.692Z,99.99
2017-08-19T03:27:19.985Z,99.99
2017-08-19T03:28:19.661Z,99.99
2017-08-19T03:29:19.962Z,99.99
2017-08-19T03:30:19.923Z,99.99
2017-08-19T03:31:19.901Z,99.99
2017-08-19T03:32:19.891Z,99.99
2017-08-19T03:33:19.567Z,99.99
2017-08-19T03:34:19.862Z,99.99
2017-08-19T03:35:19.539Z,99.99
2017-08-19T03:36:19.516Z,99.99
2017-08-19T03:37:19.925Z,99.99
2017-08-19T03:38:19.783Z,99.99
2017-08-19T03:39:19.575Z,99.99
2017-08-19T03:40:19.452Z,99.99
2017-08-19T03:41:19.484Z,99.99
2017-08-19T03:42:19.708Z,99.99
2017-08-19T03:43:19.401Z,99.99
2017-08-19T03:44:19.672Z,99.99
2017-08-19T03:45:19.358Z,99.99
2017-08-19T03:46:19.644Z,99.99
2017-08-19T03:47:19.622Z,99.99
2017-08-19T03:48:19.296Z,99.99
2017-08-19T03:49:19.697Z,99.99
2017-08-19T03:50:19.263Z,99.99
2017-08-19T03:51:19.542Z,99.99
2017-08-19T03:52:19.537Z,99.99
2017-08-19T03:53:19.520Z,99.99
2017-08-19T03:54:19.194Z,99.99
2017-08-19T03:55:19.571Z,99.99
2017-08-19T03:56:19.489Z,99.99
2017-08-19T03:57:19.451Z,99.99
2017-08-19T03:58:19.414Z,99.99
2017-08-19T03:59:19.410Z,99.99
2017-08-19T04:00:19.383Z,99.99
2017-08-19T04:01:19.066Z,99.99
2017-08-19T04:02:19.384Z,99.99
2017-08-19T04:03:19.327Z,99.99
2017-08-19T04:04:19.323Z,99.99
2017-08-19T04:05:18.994Z,99.99
2017-08-19T04:06:19.271Z,99.99
2017-08-19T04:07:18.967Z,99.99
2017-08-19T04:08:19.253Z,99.99
2017-08-19T04:09:19.313Z,99.99
2017-08-19T04:10:19.223Z,99.99
2017-08-19T04:11:19.199Z,99.99
2017-08-19T04:12:19.297Z,99.99
2017-08-19T04:13:19.263Z,99.99
2017-08-19T04:14:19.132Z,99.99
2017-08-19T04:15:19.223Z,99.99
2017-08-19T04:16:19.097Z,99.99
2017-08-19T04:17:19.093Z,99.99
2017-08-19T04:18:19.060Z,99.99
2017-08-19T04:19:19.082Z,99.99
2017-08-19T04:20:18.713Z,99.99
2017-08-19T04:21:18.700Z,99.99
2017-08-19T04:22:18.981Z,99.99
2017-08-19T04:23:18.654Z,99.99
2017-08-19T04:24:18.631Z,99.99
2017-08-19T04:25:18.615Z,99.99
2017-08-19T04:26:18.603Z,99.99
2017-08-19T04:27:18.887Z,99.99
2017-08-19T04:28:18.974Z,99.99
2017-08-19T04:29:18.547Z,99.99
2017-08-19T04:30:18.833Z,99.99
2017-08-19T04:31:18.814Z,99.99
2017-08-19T04:32:18.807Z,99.99
2017-08-19T04:33:18.783Z,99.99
2017-08-19T04:34:18.773Z,99.99
2017-08-19T04:35:18.733Z,99.99
2017-08-19T04:36:18.727Z,99.99
2017-08-19T04:37:18.696Z,99.99
2017-08-19T04:38:18.682Z,99.99
2017-08-19T04:39:18.666Z,99.99
2017-08-19T04:40:18.659Z,99.99
2017-08-19T04:41:18.338Z,99.99
2017-08-19T04:42:18.613Z,99.99
2017-08-19T04:43:18.285Z,99.99
2017-08-19T04:44:18.586Z,99.99
2017-08-19T04:45:18.552Z,99.99
2017-08-19T04:46:18.236Z,99.99
2017-08-19T04:47:18.523Z,99.99
2017-08-19T04:48:18.513Z,99.99
2017-08-19T04:49:18.481Z,99.99
2017-08-19T04:50:18.165Z,99.99
2017-08-19T04:51:18.441Z,99.99
2017-08-19T04:52:18.438Z,99.99
2017-08-19T04:53:18.415Z,99.99
2017-08-19T04:54:18.404Z,99.99
2017-08-19T04:55:18.375Z,99.99
2017-08-19T04:56:18.044Z,99.99
2017-08-19T04:57:18.343Z,99.99
2017-08-19T04:58:18.032Z,99.99
2017-08-19T04:59:18.305Z,99.99
2017-08-19T05:00:18.276Z,99.99
2017-08-19T05:01:18.271Z,99.99
2017-08-19T05:02:18.263Z,99.99
2017-08-19T05:03:18.228Z,99.99
2017-08-19T05:04:17.913Z,99.99
2017-08-19T05:05:18.195Z,99.99
2017-08-19T05:06:17.865Z,99.99
2017-08-19T05:07:18.153Z,99.99
2017-08-19T05:08:18.143Z,99.99
2017-08-19T05:09:18.134Z,99.99
2017-08-19T05:10:18.104Z,99.99
2017-08-19T05:11:18.132Z,99.99
2017-08-19T05:12:18.061Z,99.99
2017-08-19T05:13:18.061Z,99.99
2017-08-19T05:14:17.722Z,99.99
2017-08-19T05:15:18.014Z,99.99
2017-08-19T05:16:17.989Z,99.99
2017-08-19T05:17:17.971Z,99.99
2017-08-19T05:18:17.953Z,99.99
2017-08-19T05:19:17.932Z,99.99
2017-08-19T05:20:17.921Z,99.99
2017-08-19T05:21:17.911Z,99.99
2017-08-19T05:22:17.883Z,99.99
2017-08-19T05:23:17.870Z,99.99
2017-08-19T05:24:17.560Z,99.99
2017-08-19T05:25:17.573Z,99.99
2017-08-19T05:26:17.813Z,99.99
2017-08-19T05:27:17.894Z,99.99
2017-08-19T05:28:17.780Z,99.99
2017-08-19T05:29:17.795Z,99.99
2017-08-19T05:30:17.782Z,99.99
2017-08-19T05:31:17.778Z,99.99
2017-08-19T05:32:17.394Z,99.99
2017-08-19T05:33:17.792Z,99.99
2017-08-19T05:34:17.731Z,99.99
2017-08-19T05:35:17.340Z,99.99
2017-08-19T05:36:17.633Z,99.99
2017-08-19T05:37:17.713Z,99.99
2017-08-19T05:38:17.591Z,99.99
2017-08-19T05:39:17.631Z,99.99
2017-08-19T05:40:17.554Z,99.99
2017-08-19T05:41:17.332Z,99.99
2017-08-19T05:42:17.222Z,99.99
2017-08-19T05:43:17.595Z,99.99
2017-08-19T05:44:17.174Z,99.99
2017-08-19T05:45:17.481Z,99.99
2017-08-19T05:46:17.452Z,99.99
2017-08-19T05:47:17.441Z,99.99
2017-08-19T05:48:17.410Z,99.99
2017-08-19T05:49:17.498Z,99.99
2017-08-19T05:50:17.411Z,99.99
2017-08-19T05:51:17.352Z,99.99
2017-08-19T05:52:17.032Z,99.99
2017-08-19T05:53:17.323Z,99.99
2017-08-19T05:54:17.302Z,99.99
2017-08-19T05:55:17.280Z,99.99
2017-08-19T05:56:16.970Z,99.99
2017-08-19T05:57:17.241Z,99.99
2017-08-19T05:58:16.931Z,99.99
2017-08-19T05:59:17.210Z,99.99
2017-08-19T06:00:17.190Z,99.99
2017-08-19T06:01:16.872Z,99.99
2017-08-19T06:02:17.161Z,99.99
2017-08-19T06:03:17.142Z,99.99
2017-08-19T06:04:16.827Z,99.99
2017-08-19T06:05:16.813Z,99.99
2017-08-19T06:06:17.133Z,99.99
2017-08-19T06:07:17.115Z,99.99
2017-08-19T06:08:16.742Z,99.99
2017-08-19T06:09:17.032Z,99.99
2017-08-19T06:10:16.714Z,99.99
2017-08-19T06:11:17.012Z,99.99
2017-08-19T06:12:17.031Z,99.99
2017-08-19T06:13:16.973Z,99.99
2017-08-19T06:14:16.971Z,99.99
2017-08-19T06:15:16.624Z,99.99
2017-08-19T06:16:16.922Z,99.99
2017-08-19T06:17:16.891Z,99.99
2017-08-19T06:18:16.869Z,99.99
2017-08-19T06:19:16.851Z,99.99
2017-08-19T06:20:16.851Z,99.99
2017-08-19T06:21:16.821Z,99.99
2017-08-19T06:22:16.810Z,99.99
2017-08-19T06:23:16.782Z,99.99
2017-08-19T06:24:16.771Z,99.99
2017-08-19T06:25:16.750Z,99.99
2017-08-19T06:26:16.424Z,99.99
2017-08-19T06:27:16.709Z,99.99
2017-08-19T06:28:16.700Z,99.99
2017-08-19T06:29:16.683Z,99.99
2017-08-19T06:30:16.350Z,99.99
2017-08-19T06:31:16.653Z,99.99
2017-08-19T06:32:16.630Z,99.99
2017-08-19T06:33:16.312Z,99.99
2017-08-19T06:34:16.279Z,99.99
2017-08-19T06:35:16.570Z,99.99
2017-08-19T06:36:16.549Z,99.99
2017-08-19T06:37:16.231Z,99.99
2017-08-19T06:38:16.529Z,99.99
2017-08-19T06:39:16.499Z,99.99
2017-08-19T06:40:16.483Z,99.99
2017-08-19T06:41:16.470Z,99.99
2017-08-19T06:42:16.449Z,99.99
2017-08-19T06:43:16.432Z,99.99
2017-08-19T06:44:16.110Z,99.99
2017-08-19T06:45:16.391Z,99.99
2017-08-19T06:46:16.391Z,99.99
2017-08-19T06:47:16.358Z,99.99
2017-08-19T06:48:16.341Z,99.99
2017-08-19T06:49:16.019Z,99.99
2017-08-19T06:50:16.310Z,99.99
2017-08-19T06:51:16.310Z,99.99
2017-08-19T06:52:16.270Z,99.99
2017-08-19T06:53:16.256Z,99.99
2017-08-19T06:54:16.239Z,99.99
2017-08-19T06:55:16.230Z,99.99
2017-08-19T06:56:15.905Z,99.99
2017-08-19T06:57:15.896Z,99.99
2017-08-19T06:58:16.191Z,99.99
2017-08-19T06:59:15.861Z,99.99
2017-08-19T07:00:16.151Z,99.99
2017-08-19T07:01:15.820Z,99.99
2017-08-19T07:02:16.108Z,99.99
2017-08-19T07:03:15.789Z,99.99
2017-08-19T07:04:16.073Z,99.99
2017-08-19T07:05:16.060Z,99.99
2017-08-19T07:06:15.738Z,99.99
2017-08-19T07:07:16.029Z,99.99
2017-08-19T07:08:16.029Z,99.99
2017-08-19T07:09:15.990Z,99.99
2017-08-19T07:10:15.978Z,99.99
2017-08-19T07:11:15.968Z,99.99
2017-08-19T07:12:15.948Z,99.99
2017-08-19T07:13:15.621Z,99.99
2017-08-19T07:14:15.909Z,99.99
2017-08-19T07:15:15.893Z,99.99
2017-08-19T07:16:15.580Z,99.99
2017-08-19T07:17:15.868Z,99.99
2017-08-19T07:18:15.548Z,99.99
2017-08-19T07:19:15.834Z,99.99
2017-08-19T07:20:15.513Z,99.99
2017-08-19T07:21:15.809Z,99.99
2017-08-19T07:22:15.789Z,99.99
2017-08-19T07:23:15.765Z,99.99
2017-08-19T07:24:15.749Z,99.99
2017-08-19T07:25:15.740Z,99.99
2017-08-19T07:26:15.919Z,99.99
2017-08-19T07:27:15.704Z,99.99
2017-08-19T07:28:15.690Z,99.99
2017-08-19T07:29:15.378Z,99.99
2017-08-19T07:30:15.660Z,99.99
2017-08-19T07:31:15.662Z,99.99
2017-08-19T07:32:15.638Z,99.99
2017-08-19T07:33:15.609Z,99.99
2017-08-19T07:34:15.593Z,99.99
2017-08-19T07:35:15.574Z,99.99
2017-08-19T07:36:15.587Z,99.99
2017-08-19T07:37:15.241Z,99.99
2017-08-19T07:38:15.548Z,99.99
2017-08-19T07:39:15.534Z,99.99
2017-08-19T07:40:15.506Z,99.99
2017-08-19T07:41:15.499Z,99.99
2017-08-19T07:42:15.468Z,99.99
2017-08-19T07:43:15.452Z,99.99
2017-08-19T07:44:15.438Z,99.99
2017-08-19T07:45:15.419Z,99.99
2017-08-19T07:46:15.409Z,99.99
2017-08-19T07:47:15.082Z,99.99
2017-08-19T07:48:15.372Z,99.99
2017-08-19T07:49:15.349Z,99.99
2017-08-19T07:50:15.338Z,99.99
2017-08-19T07:51:15.009Z,99.99
2017-08-19T07:52:15.001Z,99.99
2017-08-19T07:53:15.280Z,99.99
2017-08-19T07:54:14.960Z,99.99
2017-08-19T07:55:14.955Z,99.99
2017-08-19T07:56:14.931Z,99.99
2017-08-19T07:57:14.917Z,99.99
2017-08-19T07:58:15.207Z,99.99
2017-08-19T07:59:15.198Z,99.99
2017-08-19T08:00:15.168Z,99.99
2017-08-19T08:01:15.151Z,99.99
2017-08-19T08:02:15.134Z,99.99
2017-08-19T08:03:14.820Z,99.99
2017-08-19T08:04:14.820Z,99.99
2017-08-19T08:05:15.108Z,99.99
2017-08-19T08:06:15.080Z,99.99
2017-08-19T08:07:14.761Z,99.99
2017-08-19T08:08:14.740Z,99.99
2017-08-19T08:09:15.040Z,99.99
2017-08-19T08:10:15.028Z,99.99
2017-08-19T08:11:15.001Z,99.99
2017-08-19T08:12:15.001Z,99.99
2017-08-19T08:13:14.671Z,99.99
2017-08-19T08:14:14.658Z,99.99
2017-08-19T08:15:14.673Z,99.99
2017-08-19T08:16:14.929Z,99.99
2017-08-19T08:17:14.613Z,99.99
2017-08-19T08:18:14.896Z,99.99
2017-08-19T08:19:14.900Z,99.99
2017-08-19T08:20:14.869Z,99.99
2017-08-19T08:21:14.561Z,99.99
2017-08-19T08:22:14.534Z,99.99
2017-08-19T08:23:14.820Z,99.99
2017-08-19T08:24:14.811Z,99.99
2017-08-19T08:25:14.491Z,99.99
2017-08-19T08:26:15.069Z,99.99
2017-08-19T08:27:14.769Z,99.99
2017-08-19T08:28:14.770Z,99.99
2017-08-19T08:29:14.440Z,99.99
2017-08-19T08:30:14.722Z,99.99
2017-08-19T08:31:14.699Z,99.99
2017-08-19T08:32:14.390Z,99.99
2017-08-19T08:33:14.672Z,99.99
2017-08-19T08:34:14.351Z,99.99
2017-08-19T08:35:14.649Z,99.99
2017-08-19T08:36:14.634Z,99.99
2017-08-19T08:37:14.605Z,99.99
2017-08-19T08:38:14.610Z,99.99
2017-08-19T08:39:14.582Z,99.99
2017-08-19T08:40:14.561Z,99.99
2017-08-19T08:41:14.551Z,99.99
2017-08-19T08:42:14.552Z,99.99
2017-08-19T08:43:14.522Z,99.99
2017-08-19T08:44:14.506Z,99.99
2017-08-19T08:45:14.481Z,99.99
2017-08-19T08:46:14.472Z,99.99
2017-08-19T08:47:14.474Z,99.99
2017-08-19T08:48:14.442Z,99.99
2017-08-19T08:49:14.446Z,99.99
2017-08-19T08:50:14.413Z,99.99
2017-08-19T08:51:14.388Z,99.99
2017-08-19T08:52:14.442Z,99.99
2017-08-19T08:53:14.042Z,99.99
2017-08-19T08:54:14.446Z,99.99
2017-08-19T08:55:14.334Z,99.99
2017-08-19T08:56:14.323Z,99.99
2017-08-19T08:57:14.292Z,99.99
2017-08-19T08:58:14.275Z,99.99
2017-08-19T08:59:14.273Z,99.99
2017-08-19T09:00:14.298Z,99.99
2017-08-19T09:01:14.228Z,99.99
2017-08-19T09:02:14.213Z,99.99
2017-08-19T09:03:14.192Z,99.99
2017-08-19T09:04:13.917Z,99.99
2017-08-19T09:05:14.169Z,99.99
2017-08-19T09:06:14.147Z,99.99
2017-08-19T09:07:14.131Z,99.99
2017-08-19T09:08:14.131Z,99.99
2017-08-19T09:09:14.099Z,99.99
2017-08-19T09:10:14.092Z,99.99
2017-08-19T09:11:14.072Z,99.99
2017-08-19T09:12:13.757Z,99.99
2017-08-19T09:13:14.051Z,99.99
2017-08-19T09:14:14.088Z,99.99
2017-08-19T09:15:14.019Z,99.99
2017-08-19T09:16:14.012Z,99.99
2017-08-19T09:17:13.990Z,99.99
2017-08-19T09:18:13.971Z,99.99
2017-08-19T09:19:13.967Z,99.99
2017-08-19T09:20:13.952Z,99.99
2017-08-19T09:21:13.930Z,99.99
2017-08-19T09:22:13.911Z,99.99
2017-08-19T09:23:13.599Z,99.99
2017-08-19T09:24:13.886Z,99.99
2017-08-19T09:25:13.867Z,99.99
2017-08-19T09:26:13.849Z,99.99
2017-08-19T09:27:13.846Z,99.99
2017-08-19T09:28:13.831Z,99.99
2017-08-19T09:29:13.820Z,99.99
2017-08-19T09:30:13.829Z,99.99
2017-08-19T09:31:13.479Z,99.99
2017-08-19T09:32:13.770Z,99.99
2017-08-19T09:33:13.761Z,99.99
2017-08-19T09:34:13.747Z,99.99
2017-08-19T09:35:13.723Z,99.99
2017-08-19T09:36:13.719Z,99.99
2017-08-19T09:37:13.389Z,99.99
2017-08-19T09:38:13.681Z,99.99
2017-08-19T09:39:13.661Z,99.99
2017-08-19T09:40:13.644Z,99.99
2017-08-19T09:41:13.628Z,99.99
2017-08-19T09:42:13.630Z,99.99
2017-08-19T09:43:13.598Z,99.99
2017-08-19T09:44:13.583Z,99.99
2017-08-19T09:45:13.579Z,99.99
2017-08-19T09:46:13.250Z,99.99
2017-08-19T09:47:13.534Z,99.99
2017-08-19T09:48:13.518Z,99.99
2017-08-19T09:49:13.505Z,99.99
2017-08-19T09:50:13.491Z,99.99
2017-08-19T09:51:13.480Z,99.99
2017-08-19T09:52:13.459Z,99.99
2017-08-19T09:53:13.449Z,99.99
2017-08-19T09:54:13.442Z,99.99
2017-08-19T09:55:13.422Z,99.99
2017-08-19T09:56:13.412Z,99.99
2017-08-19T09:57:13.392Z,99.99
2017-08-19T09:58:13.070Z,99.99
2017-08-19T09:59:13.350Z,99.99
2017-08-19T10:00:13.356Z,99.99
2017-08-19T10:01:13.350Z,99.99
2017-08-19T10:02:13.330Z,99.99
2017-08-19T10:03:13.312Z,99.99
2017-08-19T10:04:13.301Z,99.99
2017-08-19T10:05:13.282Z,99.99
2017-08-19T10:06:13.279Z,99.99
2017-08-19T10:07:13.264Z,99.99
2017-08-19T10:08:13.227Z,99.99
2017-08-19T10:09:13.229Z,99.99
2017-08-19T10:10:13.210Z,99.99
2017-08-19T10:11:13.214Z,99.99
2017-08-19T10:12:13.183Z,99.99
2017-08-19T10:13:13.180Z,99.16
2017-08-19T10:14:13.161Z,98.1
2017-08-19T10:15:13.161Z,96.75
2017-08-19T10:16:13.199Z,96.94
2017-08-19T10:17:13.120Z,97.96
2017-08-19T10:18:13.110Z,98.2
2017-08-19T10:19:13.093Z,97.81
2017-08-19T10:20:13.079Z,97.24
2017-08-19T10:21:13.080Z,96.75
2017-08-19T10:22:13.069Z,96.85
2017-08-19T10:23:13.070Z,97.24
2017-08-19T10:24:12.734Z,98.82
2017-08-19T10:25:13.040Z,99.16
2017-08-19T10:26:13.008Z,98.1
2017-08-19T10:27:13.000Z,98.34
2017-08-19T10:28:12.680Z,98.34
2017-08-19T10:29:12.981Z,98.63
2017-08-19T10:30:12.962Z,98.72
2017-08-19T10:31:12.642Z,98.05
2017-08-19T10:32:12.938Z,98.05
2017-08-19T10:33:12.611Z,97.86
2017-08-19T10:34:12.911Z,97.91
2017-08-19T10:35:12.897Z,97.62
2017-08-19T10:36:12.882Z,96.75
2017-08-19T10:37:12.881Z,94.68
2017-08-19T10:38:12.860Z,94.58
2017-08-19T10:39:12.847Z,94.96
2017-08-19T10:40:12.543Z,94.53
2017-08-19T10:41:12.829Z,94.53
2017-08-19T10:42:12.809Z,93.95
2017-08-19T10:43:12.807Z,93.28
2017-08-19T10:44:12.789Z,93.13
2017-08-19T10:45:12.790Z,91.78
2017-08-19T10:46:12.761Z,92.16
2017-08-19T10:47:12.748Z,90.91
2017-08-19T10:48:12.743Z,92.16
2017-08-19T10:49:12.728Z,91.59
2017-08-19T10:50:12.732Z,91.93
2017-08-19T10:51:12.710Z,91.93
2017-08-19T10:52:12.382Z,90.53
2017-08-19T10:53:12.691Z,90.47
2017-08-19T10:54:12.682Z,90.91
2017-08-19T10:55:12.353Z,90.91
2017-08-19T10:56:12.651Z,92.32
2017-08-19T10:57:12.326Z,93.13
2017-08-19T10:58:12.621Z,92.41
2017-08-19T10:59:12.618Z,91.2
2017-08-19T11:00:12.295Z,89.22
2017-08-19T11:01:12.602Z,88.83
2017-08-19T11:02:12.616Z,88.45
2017-08-19T11:03:12.561Z,88.83
2017-08-19T11:04:12.569Z,88.39
2017-08-19T11:05:12.229Z,86.41
2017-08-19T11:06:12.220Z,86.51
2017-08-19T11:07:12.209Z,85.68
2017-08-19T11:08:12.509Z,85.58
2017-08-19T11:09:12.196Z,85.97
2017-08-19T11:10:12.478Z,87.71
2017-08-19T11:11:12.180Z,88.25
2017-08-19T11:12:12.461Z,87.67
2017-08-19T11:13:12.446Z,87.62
2017-08-19T11:14:12.450Z,85.87
2017-08-19T11:15:12.434Z,84.46
2017-08-19T11:16:12.429Z,83.88
2017-08-19T11:17:12.418Z,84.46
2017-08-19T11:18:12.459Z,84.71
2017-08-19T11:19:12.390Z,85.93
2017-08-19T11:20:12.393Z,88.54
2017-08-19T11:21:12.062Z,89.56
2017-08-19T11:22:12.138Z,91.74
2017-08-19T11:23:12.341Z,92.36
2017-08-19T11:24:12.333Z,91.88
2017-08-19T11:25:12.310Z,90.77
2017-08-19T11:26:12.320Z,89.95
2017-08-19T11:27:12.288Z,90
2017-08-19T11:28:11.983Z,90.09
2017-08-19T11:29:12.279Z,90.53
2017-08-19T11:30:12.321Z,90.87
2017-08-19T11:31:12.260Z,91.06
2017-08-19T11:32:12.258Z,90.05
2017-08-19T11:33:12.223Z,89.27
2017-08-19T11:34:12.323Z,88.89
2017-08-19T11:35:12.205Z,89.37
2017-08-19T11:36:12.183Z,88.59
2017-08-19T11:37:12.221Z,89.47
2017-08-19T11:38:12.183Z,89.9
2017-08-19T11:39:12.173Z,89.95
2017-08-19T11:40:12.144Z,90.14
2017-08-19T11:41:12.135Z,90.87
2017-08-19T11:42:12.142Z,89.75
2017-08-19T11:43:12.139Z,89.95
2017-08-19T11:44:12.104Z,90.23
2017-08-19T11:45:12.093Z,89.95
2017-08-19T11:46:12.074Z,89.75
2017-08-19T11:47:12.074Z,91.35
2017-08-19T11:48:12.073Z,92.56
2017-08-19T11:49:12.045Z,91.78
2017-08-19T11:50:12.030Z,90.13
2017-08-19T11:51:12.025Z,87.95
2017-08-19T11:52:12.001Z,88.06
2017-08-19T11:53:12.001Z,88.59
2017-08-19T11:54:11.995Z,88.83
2017-08-19T11:55:11.983Z,88.98
2017-08-19T11:56:11.956Z,89.47
2017-08-19T11:57:11.952Z,88.69
2017-08-19T11:58:11.623Z,87.09
2017-08-19T11:59:11.936Z,86.38
2017-08-19T12:00:11.927Z,87.15
2017-08-19T12:01:11.908Z,86.32
2017-08-19T12:02:11.895Z,86.32
2017-08-19T12:03:11.882Z,87.19
2017-08-19T12:04:11.872Z,86.61
2017-08-19T12:05:11.869Z,86.03
2017-08-19T12:06:11.866Z,85.94
2017-08-19T12:07:11.840Z,86.13
2017-08-19T12:08:11.531Z,86.57
2017-08-19T12:09:11.806Z,86.52
2017-08-19T12:10:11.488Z,86.61
2017-08-19T12:11:11.794Z,87.48
2017-08-19T12:12:11.806Z,87.58
2017-08-19T12:13:11.472Z,87.48
2017-08-19T12:14:11.741Z,86.8
2017-08-19T12:15:11.741Z,85.01
2017-08-19T12:16:11.732Z,84.33
2017-08-19T12:17:11.401Z,85.06
2017-08-19T12:18:11.728Z,85.89
2017-08-19T12:19:11.393Z,86.18
2017-08-19T12:20:11.369Z,85.84
2017-08-19T12:21:11.683Z,85.55
2017-08-19T12:22:11.651Z,85.84
2017-08-19T12:23:11.682Z,86.03
2017-08-19T12:24:11.651Z,87.24
2017-08-19T12:25:11.620Z,87.24
2017-08-19T12:26:11.608Z,86.66
2017-08-19T12:27:11.602Z,87.44
2017-08-19T12:28:11.601Z,88.17
2017-08-19T12:29:11.572Z,88.36
2017-08-19T12:30:11.559Z,88.5
2017-08-19T12:31:11.561Z,87
2017-08-19T12:32:11.592Z,86.22
2017-08-19T12:33:11.212Z,86.52
2017-08-19T12:34:11.563Z,87.58
2017-08-19T12:35:11.512Z,86.71
2017-08-19T12:36:11.485Z,87.34
2017-08-19T12:37:11.498Z,87.49
2017-08-19T12:38:11.464Z,87.53
2017-08-19T12:39:11.458Z,87.68
2017-08-19T12:40:11.130Z,86.86
2017-08-19T12:41:11.429Z,86.61
2017-08-19T12:42:11.110Z,86.52
2017-08-19T12:43:11.092Z,87.48
2017-08-19T12:44:11.628Z,88.5
2017-08-19T12:45:11.377Z,88.89
2017-08-19T12:46:11.438Z,88.45
2017-08-19T12:47:11.061Z,89.32
2017-08-19T12:48:11.043Z,89.18
2017-08-19T12:49:11.330Z,90.05
2017-08-19T12:50:11.013Z,90
2017-08-19T12:51:11.001Z,90.92
2017-08-19T12:52:11.289Z,91.93
2017-08-19T12:53:11.292Z,92.13